Time;durP1;ratioP1;P1;durP2;ratioP2;P2;SDS_P1;SDS_P2;PMS_P1;PMS_P2;Temp;Humidity;BMP_temperature;BMP_pressure;BME280_temperature;BME280_humidity;BME280_pressure;Samples;Min_cycle;Max_cycle;Signal;HPM_P1;HPM_P2
2021/05/28 00:01:35;;;;;;;5.25;4.65;;;;;;;11.11;68.71;100544.81;127904;1101;22373;-76
2021/05/28 00:04:05;;;;;;;5.28;4.75;;;;;;;11.07;68.68;100542.50;128298;1101;22362;-76
2021/05/28 00:06:35;;;;;;;5.33;4.83;;;;;;;11.04;68.78;100545.48;128216;1101;22916;-76
2021/05/28 00:09:06;;;;;;;6.55;5.63;;;;;;;11.01;68.62;100551.09;128259;1101;22366;-76
2021/05/28 00:11:35;;;;;;;5.03;4.30;;;;;;;10.97;68.87;100554.25;128172;1101;22338;-75
2021/05/28 00:14:06;;;;;;;7.75;5.80;;;;;;;10.93;68.89;100552.90;128171;1101;22361;-75
2021/05/28 00:16:36;;;;;;;7.35;5.50;;;;;;;10.89;69.04;100546.30;128232;1098;22333;-75
2021/05/28 00:19:06;;;;;;;5.55;5.05;;;;;;;10.88;68.89;100547.30;128227;1101;22340;-75
2021/05/28 00:21:36;;;;;;;5.93;5.30;;;;;;;10.87;68.89;100550.94;128158;1101;22351;-76
2021/05/28 00:24:07;;;;;;;6.03;5.48;;;;;;;10.84;69.14;100549.45;128259;1101;22349;-76
2021/05/28 00:26:37;;;;;;;6.55;5.93;;;;;;;10.79;69.07;100541.99;128261;1098;22388;-76
2021/05/28 00:29:07;;;;;;;5.33;4.73;;;;;;;10.77;69.09;100543.99;128201;1098;22344;-75
2021/05/28 00:31:37;;;;;;;5.78;5.18;;;;;;;10.73;69.21;100544.47;128174;1098;24239;-75
2021/05/28 00:34:06;;;;;;;6.25;5.65;;;;;;;10.69;69.32;100540.50;128177;1101;22541;-74
2021/05/28 00:36:36;;;;;;;5.68;5.15;;;;;;;10.66;69.30;100541.65;128187;1101;22357;-74
2021/05/28 00:39:07;;;;;;;5.93;5.33;;;;;;;10.61;69.30;100543.97;128193;1098;22807;-74
2021/05/28 00:41:36;;;;;;;5.88;5.25;;;;;;;10.57;69.75;100543.48;128192;1098;24976;-74
2021/05/28 00:44:07;;;;;;;6.30;5.53;;;;;;;10.55;69.55;100541.98;128195;1101;22354;-74
2021/05/28 00:46:37;;;;;;;5.68;5.18;;;;;;;10.52;69.04;100550.22;128237;1098;24252;-74
2021/05/28 00:49:07;;;;;;;6.58;5.23;;;;;;;10.48;69.67;100554.19;128167;1101;22339;-74
2021/05/28 00:51:37;;;;;;;6.68;6.05;;;;;;;10.45;69.84;100551.86;128176;1101;22860;-74
2021/05/28 00:54:06;;;;;;;8.28;7.50;;;;;;;10.40;69.87;100560.28;128230;1098;24257;-75
2021/05/28 00:56:39;;;;;;;11.23;8.75;;;;;;;10.32;69.88;100571.63;128197;1098;22446;-75
2021/05/28 00:59:10;;;;;;;10.28;8.78;;;;;;;10.22;69.74;100554.25;128173;1098;22800;-75
2021/05/28 01:01:40;;;;;;;9.93;8.93;;;;;;;10.11;69.91;100568.57;128238;1098;22352;-75
2021/05/28 01:04:10;;;;;;;10.60;9.60;;;;;;;10.01;70.05;100568.70;128198;1101;22375;-75
2021/05/28 01:06:40;;;;;;;11.23;9.93;;;;;;;9.91;70.40;100570.63;128159;1101;22896;-75
2021/05/28 01:09:10;;;;;;;10.80;9.70;;;;;;;9.85;70.47;100565.98;128210;1098;24265;-75
2021/05/28 01:11:40;;;;;;;12.43;10.75;;;;;;;9.80;70.71;100574.38;128163;1101;22367;-76
2021/05/28 01:14:10;;;;;;;11.60;10.48;;;;;;;9.73;70.88;100565.45;128206;1098;22361;-76
2021/05/28 01:16:40;;;;;;;11.85;10.58;;;;;;;9.66;71.03;100564.39;128201;1098;22344;-76
2021/05/28 01:19:10;;;;;;;11.83;10.83;;;;;;;9.61;71.23;100564.05;128161;1101;22368;-76
2021/05/28 01:21:43;;;;;;;12.60;11.30;;;;;;;9.57;71.08;100571.45;128167;1101;22380;-76
2021/05/28 01:24:13;;;;;;;12.43;11.33;;;;;;;9.53;71.54;100561.34;128182;1098;24506;-75
2021/05/28 01:26:42;;;;;;;13.48;12.18;;;;;;;9.52;71.67;100562.34;128165;1098;24794;-75
2021/05/28 01:29:14;;;;;;;13.10;11.83;;;;;;;9.52;71.95;100567.61;128180;1101;23118;-75
2021/05/28 01:31:44;;;;;;;13.30;11.88;;;;;;;9.52;72.16;100570.25;128174;1101;22359;-75
2021/05/28 01:34:16;;;;;;;13.80;12.60;;;;;;;9.53;72.03;100578.03;128202;1098;24486;-75
2021/05/28 01:36:49;;;;;;;14.05;12.15;;;;;;;9.53;72.12;100571.89;128303;1098;22343;-74
2021/05/28 01:39:19;;;;;;;14.95;13.50;;;;;;;9.52;72.17;100570.25;128191;1101;22342;-75
2021/05/28 01:41:49;;;;;;;16.67;15.37;;;;;;;9.52;72.33;100572.89;128164;1101;22374;-75
2021/05/28 01:44:19;;;;;;;17.23;15.68;;;;;;;9.53;72.42;100571.89;128147;1098;22366;-75
2021/05/28 01:46:49;;;;;;;16.25;14.85;;;;;;;9.54;72.58;100571.76;128153;1101;22362;-74
2021/05/28 01:49:19;;;;;;;14.65;13.35;;;;;;;9.55;72.44;100572.58;128163;1101;22427;-75
2021/05/28 01:51:50;;;;;;;14.28;12.90;;;;;;;9.55;72.52;100578.67;128212;1101;22774;-75
2021/05/28 01:54:22;;;;;;;14.75;12.48;;;;;;;9.56;72.68;100574.22;128232;1098;22349;-75
2021/05/28 01:56:52;;;;;;;12.88;11.68;;;;;;;9.56;72.48;100576.86;128190;1098;23304;-75
2021/05/28 01:59:26;;;;;;;12.48;11.48;;;;;;;9.56;72.42;100572.44;128174;1098;24482;-75
2021/05/28 02:01:57;;;;;;;10.15;9.25;;;;;;;9.56;72.87;100563.67;128198;1101;23120;-76
2021/05/28 02:04:28;;;;;;;12.73;9.45;;;;;;;9.57;72.71;100565.35;128165;1101;22337;-76
2021/05/28 02:06:58;;;;;;;8.23;7.53;;;;;;;9.56;72.73;100563.67;128172;1101;22367;-75
2021/05/28 02:09:28;;;;;;;9.63;8.73;;;;;;;9.55;72.86;100562.85;128139;1098;24955;-75
2021/05/28 02:11:59;;;;;;;9.13;8.30;;;;;;;9.56;72.86;100566.31;128158;1101;22339;-77
2021/05/28 02:14:30;;;;;;;9.00;8.10;;;;;;;9.56;72.96;100563.67;128214;1100;22357;-76
2021/05/28 02:17:00;;;;;;;8.65;7.80;;;;;;;9.56;72.97;100564.53;128182;1101;22725;-76
2021/05/28 02:19:30;;;;;;;8.23;7.53;;;;;;;9.56;72.98;100569.80;128156;1101;22365;-76
2021/05/28 02:21:59;;;;;;;9.80;7.97;;;;;;;9.56;72.95;100571.59;128198;1101;23324;-76
2021/05/28 02:24:29;;;;;;;12.23;8.33;;;;;;;9.56;72.98;100556.62;128198;1101;22350;-76
2021/05/28 02:26:59;;;;;;;11.03;8.68;;;;;;;9.56;72.91;100561.03;128185;1100;22759;-76
2021/05/28 02:29:28;;;;;;;8.60;7.35;;;;;;;9.56;73.32;100559.25;128195;1098;24323;-74
2021/05/28 02:31:58;;;;;;;10.73;8.58;;;;;;;9.57;73.01;100567.98;128157;1101;22342;-75
2021/05/28 02:34:28;;;;;;;8.63;7.93;;;;;;;9.57;73.16;100563.53;128149;1101;22465;-76
2021/05/28 02:36:57;;;;;;;7.65;6.95;;;;;;;9.59;73.28;100564.19;128093;1101;22361;-76
2021/05/28 02:39:27;;;;;;;7.95;7.25;;;;;;;9.63;73.35;100564.73;128177;1098;22360;-76
2021/05/28 02:41:57;;;;;;;8.28;7.48;;;;;;;9.67;73.55;100571.34;128163;1098;24482;-76
2021/05/28 02:44:26;;;;;;;8.33;7.27;;;;;;;9.73;73.56;100569.87;128182;1101;22347;-76
2021/05/28 02:46:56;;;;;;;8.70;8.00;;;;;;;9.76;73.66;100573.02;128190;1101;22347;-76
2021/05/28 02:49:26;;;;;;;7.75;6.83;;;;;;;9.80;73.60;100566.47;128165;1098;22786;-76
2021/05/28 02:51:56;;;;;;;8.03;7.35;;;;;;;9.84;73.82;100570.44;128182;1102;22416;-75
2021/05/28 02:54:27;;;;;;;7.13;6.53;;;;;;;9.89;74.05;100573.41;128161;1101;22694;-75
2021/05/28 02:56:57;;;;;;;7.67;6.90;;;;;;;9.92;73.68;100580.20;128170;1101;22338;-76
2021/05/28 02:59:27;;;;;;;7.05;6.45;;;;;;;9.95;73.64;100576.42;128188;1101;22387;-76
2021/05/28 03:01:57;;;;;;;8.33;6.63;;;;;;;9.98;73.54;100578.75;128176;1101;22352;-76
2021/05/28 03:04:26;;;;;;;7.78;6.98;;;;;;;10.01;73.44;100581.07;128186;1101;22372;-76
2021/05/28 03:06:56;;;;;;;7.08;6.40;;;;;;;10.02;73.32;100582.72;128157;1101;22436;-76
2021/05/28 03:09:26;;;;;;;6.78;5.98;;;;;;;10.04;72.94;100583.39;128199;1101;22380;-76
2021/05/28 03:11:56;;;;;;;6.83;5.90;;;;;;;10.03;73.07;100587.00;128168;1101;22334;-76
2021/05/28 03:14:25;;;;;;;7.55;6.63;;;;;;;10.04;73.11;100578.94;128189;1098;24557;-76
2021/05/28 03:16:55;;;;;;;6.48;5.88;;;;;;;10.04;72.98;100584.22;128200;1098;24992;-76
2021/05/28 03:19:32;;;;;;;7.03;6.33;;;;;;;10.05;73.08;100585.86;128170;1101;22380;-76
2021/05/28 03:24:45;;;;;;;9.73;6.90;;;;;;;10.05;73.00;100588.50;127925;1104;22368;-76
2021/05/28 03:27:15;;;;;;;7.38;6.68;;;;;;;10.07;72.94;100588.36;127897;1104;22420;-76
2021/05/28 03:29:44;;;;;;;7.00;6.40;;;;;;;10.10;72.87;100591.51;127867;1101;24479;-75
2021/05/28 03:32:14;;;;;;;8.63;6.98;;;;;;;10.15;73.23;100593.66;127902;1101;23374;-75
2021/05/28 03:34:44;;;;;;;7.20;6.45;;;;;;;10.24;73.36;100586.61;127888;1104;22793;-75
2021/05/28 03:37:14;;;;;;;8.40;6.60;;;;;;;10.33;73.22;100586.52;127927;1101;24456;-75
2021/05/28 03:39:47;;;;;;;7.33;6.63;;;;;;;10.43;73.23;100588.16;127919;1098;22334;-75
2021/05/28 03:42:18;;;;;;;6.48;5.78;;;;;;;10.49;72.93;100584.88;128162;1101;22334;-75
2021/05/28 03:44:50;;;;;;;5.87;5.30;;;;;;;10.58;72.90;100591.84;128164;1098;24983;-76
2021/05/28 03:47:20;;;;;;;6.10;5.60;;;;;;;10.64;72.74;100593.02;128178;1101;22418;-75
2021/05/28 03:49:51;;;;;;;6.07;5.53;;;;;;;10.70;72.91;100595.02;128185;1101;22337;-74
2021/05/28 03:52:20;;;;;;;9.73;6.08;;;;;;;10.75;72.33;100597.98;128192;1100;22352;-75
2021/05/28 03:54:52;;;;;;;5.85;5.23;;;;;;;10.77;72.07;100591.56;128166;1101;22376;-76
2021/05/28 03:57:22;;;;;;;7.37;5.60;;;;;;;10.80;72.24;100596.52;128217;1101;22355;-75
2021/05/28 03:59:56;;;;;;;6.00;5.50;;;;;;;10.82;71.95;100602.45;127962;1098;22367;-75
2021/05/28 04:02:26;;;;;;;6.68;5.93;;;;;;;10.82;71.85;100598.98;128171;1101;22354;-76
2021/05/28 04:04:56;;;;;;;8.43;5.63;;;;;;;10.84;71.82;100611.05;128205;1101;22360;-76
2021/05/28 04:07:27;;;;;;;8.25;5.93;;;;;;;10.84;71.48;100597.02;128171;1098;22340;-75
2021/05/28 04:09:57;;;;;;;;;;;;;;;10.79;71.30;100604.59;128169;1101;22369;-76
2021/05/28 04:12:27;;;;;;;7.03;6.33;;;;;;;10.73;71.40;100614.02;128169;1101;21270;-76
2021/05/28 04:14:57;;;;;;;7.68;5.88;;;;;;;10.75;71.72;100604.09;128210;1098;22341;-82
2021/05/28 04:17:27;;;;;;;6.25;5.65;;;;;;;10.78;71.59;100605.59;128325;1101;22347;-82
2021/05/28 04:19:57;;;;;;;10.13;6.90;;;;;;;10.82;71.73;100602.45;128281;1101;22387;-82
2021/05/28 04:22:27;;;;;;;6.88;6.18;;;;;;;10.89;71.54;100607.09;128040;1101;22349;-75
2021/05/28 04:24:57;;;;;;;6.65;6.05;;;;;;;10.90;71.38;100599.02;128214;1098;22369;-75
2021/05/28 04:27:27;;;;;;;6.68;6.03;;;;;;;10.90;71.24;100601.66;128169;1101;22349;-74
2021/05/28 04:29:57;;;;;;;7.35;6.75;;;;;;;10.93;71.08;100597.83;128173;1101;22337;-75
2021/05/28 04:32:26;;;;;;;8.20;6.40;;;;;;;10.94;71.14;100602.97;128197;1098;24173;-75
2021/05/28 04:34:57;;;;;;;7.80;7.10;;;;;;;10.97;71.34;100607.11;128200;1101;22760;-75
2021/05/28 04:37:28;;;;;;;7.13;6.50;;;;;;;10.98;71.26;100606.11;128291;1101;22367;-76
2021/05/28 04:39:57;;;;;;;13.03;6.83;;;;;;;11.04;71.44;100616.03;128214;1101;22351;-75
2021/05/28 04:42:27;;;;;;;7.47;6.00;;;;;;;11.11;71.51;100609.09;128205;1101;22382;-76
2021/05/28 04:44:57;;;;;;;6.73;6.13;;;;;;;11.16;71.35;100613.88;128201;1098;22785;-76
2021/05/28 04:47:27;;;;;;;8.65;6.55;;;;;;;11.18;70.93;100615.38;128178;1101;22346;-76
2021/05/28 04:49:56;;;;;;;5.98;5.38;;;;;;;11.21;70.97;100615.05;128163;1098;24472;-76
2021/05/28 04:52:26;;;;;;;6.25;5.60;;;;;;;11.26;71.08;100611.89;128146;1101;22339;-76
2021/05/28 04:54:55;;;;;;;6.58;5.98;;;;;;;11.33;70.91;100614.70;128162;1098;24482;-76
2021/05/28 04:57:25;;;;;;;6.53;5.85;;;;;;;11.41;70.88;100617.36;127837;1104;22381;-76
2021/05/28 04:59:55;;;;;;;7.88;6.63;;;;;;;11.48;70.83;100618.34;127852;1104;22399;-76
2021/05/28 05:02:24;;;;;;;7.15;6.55;;;;;;;11.60;71.11;100622.30;127827;1101;25035;-75
2021/05/28 05:04:55;;;;;;;7.85;7.05;;;;;;;11.73;71.00;100624.44;127860;1104;22383;-76
2021/05/28 05:07:25;;;;;;;9.65;7.00;;;;;;;11.82;70.54;100623.40;127872;1101;24514;-76
2021/05/28 05:09:54;;;;;;;6.75;6.05;;;;;;;11.89;70.32;100628.88;127875;1105;22401;-75
2021/05/28 05:12:24;;;;;;;7.55;6.68;;;;;;;11.98;70.28;100626.03;127910;1104;22397;-75
2021/05/28 05:14:54;;;;;;;7.73;6.70;;;;;;;12.07;69.99;100626.84;127926;1102;22383;-76
2021/05/28 05:17:23;;;;;;;7.50;6.75;;;;;;;12.16;69.71;100636.42;128209;1101;22362;-76
2021/05/28 05:19:53;;;;;;;8.37;7.57;;;;;;;12.20;69.43;100645.67;128185;1101;22351;-75
2021/05/28 05:22:23;;;;;;;8.18;7.48;;;;;;;12.23;69.21;100639.21;128217;1098;22453;-75
2021/05/28 05:24:53;;;;;;;7.53;6.90;;;;;;;12.20;68.88;100642.20;128160;1101;22347;-75
2021/05/28 05:27:23;;;;;;;9.15;7.90;;;;;;;12.20;69.09;100643.02;128147;1101;22367;-75
2021/05/28 05:29:52;;;;;;;8.63;6.95;;;;;;;12.20;68.77;100650.15;128230;1101;22436;-75
2021/05/28 05:32:22;;;;;;;7.43;6.70;;;;;;;12.17;68.89;100648.66;128206;1098;22359;-75
2021/05/28 05:34:56;;;;;;;10.60;7.80;;;;;;;12.15;68.83;100642.70;128227;1098;22388;-75
2021/05/28 05:37:25;;;;;;;8.50;7.70;;;;;;;12.14;68.97;100654.30;128229;1101;22331;-76
2021/05/28 05:39:55;;;;;;;8.03;7.28;;;;;;;12.15;69.17;100660.41;128225;1101;23123;-76
2021/05/28 05:42:25;;;;;;;10.60;9.50;;;;;;;12.14;68.91;100659.59;128209;1101;22350;-76
2021/05/28 05:44:55;;;;;;;8.68;7.85;;;;;;;12.15;68.69;100660.41;128215;1098;22339;-76
2021/05/28 05:47:24;;;;;;;8.48;7.60;;;;;;;12.14;68.77;100661.42;128191;1101;22339;-76
2021/05/28 05:49:54;;;;;;;9.53;8.73;;;;;;;12.10;68.75;100663.58;128167;1098;24469;-76
2021/05/28 05:52:24;;;;;;;9.38;8.43;;;;;;;12.09;69.03;100667.20;128313;1101;22812;-76
2021/05/28 05:54:54;;;;;;;9.40;8.45;;;;;;;12.08;68.88;100670.86;128257;1101;22354;-75
2021/05/28 05:57:27;;;;;;;10.23;8.63;;;;;;;12.07;68.83;100673.69;128181;1098;24466;-75
2021/05/28 05:59:57;;;;;;;11.57;10.43;;;;;;;12.07;68.89;100673.69;128182;1101;22361;-76
2021/05/28 06:02:27;;;;;;;10.48;9.58;;;;;;;12.06;69.05;100667.55;128175;1098;22472;-76
2021/05/28 06:04:57;;;;;;;10.28;9.38;;;;;;;12.06;68.94;100664.89;128162;1101;22339;-76
2021/05/28 06:07:29;;;;;;;8.70;8.00;;;;;;;12.08;69.35;100665.56;128193;1101;22352;-76
2021/05/28 06:09:59;;;;;;;11.00;9.85;;;;;;;12.15;69.53;100665.71;127899;1104;22438;-76
2021/05/28 06:12:28;;;;;;;11.85;9.50;;;;;;;12.22;69.28;100659.55;127907;1105;22446;-76
2021/05/28 06:14:58;;;;;;;9.78;8.73;;;;;;;12.38;70.15;100661.32;127909;1104;22381;-76
2021/05/28 06:17:28;;;;;;;10.10;9.07;;;;;;;12.67;70.53;100675.78;127937;1101;23078;-76
2021/05/28 06:19:58;;;;;;;10.50;9.33;;;;;;;12.97;70.04;100671.47;127993;1104;22467;-75
2021/05/28 06:22:31;;;;;;;9.10;8.30;;;;;;;13.16;69.24;100671.01;127564;1105;22436;-75
2021/05/28 06:25:00;;;;;;;9.08;8.20;;;;;;;13.29;68.31;100670.42;127934;1104;22387;-74
2021/05/28 06:27:30;;;;;;;9.28;8.38;;;;;;;13.39;67.83;100676.34;128036;1104;22377;-75
2021/05/28 06:30:00;;;;;;;9.00;8.20;;;;;;;13.46;66.79;100681.73;127967;1100;22374;-75
2021/05/28 06:32:30;;;;;;;11.30;10.25;;;;;;;13.50;66.63;100682.23;127940;1103;23119;-75
2021/05/28 06:34:59;;;;;;;10.98;9.80;;;;;;;13.47;66.27;100688.71;127964;1101;22362;-75
2021/05/28 06:37:29;;;;;;;10.63;9.53;;;;;;;13.46;66.59;100687.04;127960;1101;22447;-74
2021/05/28 06:40:00;;;;;;;21.33;12.88;;;;;;;13.45;66.34;100690.70;127968;1102;22355;-79
2021/05/28 06:42:30;;;;;;;9.50;8.65;;;;;;;13.45;66.42;100682.75;127956;1101;25693;-78
2021/05/28 06:45:00;;;;;;;9.88;9.08;;;;;;;13.48;66.40;100687.70;127991;1104;22461;-78
2021/05/28 06:47:30;;;;;;;10.85;9.95;;;;;;;13.46;66.59;100687.04;128050;1104;22348;-79
2021/05/28 06:50:01;;;;;;;10.53;9.68;;;;;;;13.48;66.55;100695.66;127960;1104;22396;-80
2021/05/28 06:52:31;;;;;;;10.55;9.60;;;;;;;13.42;66.32;100694.53;127972;1101;22413;-79
2021/05/28 06:55:02;;;;;;;10.35;9.48;;;;;;;13.39;66.59;100691.41;128068;1104;22393;-79
2021/05/28 06:57:32;;;;;;;9.43;8.63;;;;;;;13.39;66.15;100700.23;127929;1101;24504;-78
2021/05/28 07:00:07;;;;;;;7.30;6.60;;;;;;;13.39;66.83;100699.38;128000;1102;22387;-78
2021/05/28 07:02:37;;;;;;;8.73;7.60;;;;;;;13.35;66.40;100695.44;128241;1098;22832;-80
2021/05/28 07:05:11;;;;;;;10.40;7.78;;;;;;;13.36;66.59;100694.42;128269;1101;22337;-79
2021/05/28 07:07:41;;;;;;;8.83;8.05;;;;;;;13.40;66.97;100701.05;128263;1101;22390;-75
2021/05/28 07:10:12;;;;;;;8.38;7.53;;;;;;;13.41;66.72;100698.20;128233;1098;23389;-75
2021/05/28 07:12:42;;;;;;;9.35;8.53;;;;;;;13.43;66.74;100700.69;128220;1101;22353;-75
2021/05/28 07:15:14;;;;;;;11.15;10.15;;;;;;;13.39;66.61;100697.58;128213;1101;22368;-73
2021/05/28 07:17:43;;;;;;;10.50;9.60;;;;;;;13.33;66.52;100702.77;128242;1098;24252;-74
2021/05/28 07:20:14;;;;;;;9.83;8.93;;;;;;;13.33;66.63;100702.77;128247;1101;23669;-74
2021/05/28 07:22:44;;;;;;;10.18;9.28;;;;;;;13.30;66.76;100703.11;128193;1101;22393;-75
2021/05/28 07:25:15;;;;;;;8.67;7.97;;;;;;;13.30;67.08;100705.77;128193;1101;22420;-75
2021/05/28 07:27:45;;;;;;;9.58;8.73;;;;;;;13.25;66.85;100708.93;128194;1101;22391;-75
2021/05/28 07:30:15;;;;;;;11.03;10.05;;;;;;;13.21;67.43;100709.44;128200;1101;22538;-75
2021/05/28 07:32:44;;;;;;;11.38;10.15;;;;;;;13.17;67.30;100709.79;128188;1101;22470;-76
2021/05/28 07:35:15;;;;;;;12.18;11.08;;;;;;;13.15;67.62;100709.13;128239;1098;24174;-75
2021/05/28 07:37:45;;;;;;;10.78;9.78;;;;;;;13.11;67.73;100705.18;128210;1101;22349;-76
2021/05/28 07:40:15;;;;;;;11.73;10.55;;;;;;;13.11;68.27;100705.18;128225;1098;23118;-76
2021/05/28 07:42:45;;;;;;;13.13;11.75;;;;;;;13.11;68.35;100713.14;128201;1101;22455;-75
2021/05/28 07:45:16;;;;;;;12.23;11.13;;;;;;;13.13;68.57;100716.45;128187;1101;22347;-75
2021/05/28 07:47:46;;;;;;;12.50;11.43;;;;;;;13.12;68.38;100717.44;128205;1101;22828;-75
2021/05/28 07:50:16;;;;;;;12.97;11.67;;;;;;;13.10;68.39;100710.67;128148;1098;24188;-76
2021/05/28 07:52:46;;;;;;;12.68;11.58;;;;;;;13.09;68.38;100716.96;128329;1100;23119;-76
2021/05/28 07:55:16;;;;;;;12.78;11.55;;;;;;;13.12;68.43;100711.31;128224;1101;22367;-76
2021/05/28 07:57:45;;;;;;;12.18;11.08;;;;;;;13.17;68.82;100708.97;128213;1098;24252;-76
2021/05/28 08:00:16;;;;;;;17.75;15.68;;;;;;;13.25;68.83;100718.72;128153;1098;24517;-76
2021/05/28 08:02:47;;;;;;;17.20;13.43;;;;;;;13.37;68.88;100720.80;128208;1098;24503;-74
2021/05/28 08:05:17;;;;;;;;;;;;;;;13.39;68.36;100713.49;128221;1101;22349;-76
2021/05/28 08:09:06;;;;;;;11.83;10.60;;;;;;;13.40;68.31;100719.63;128238;1098;21277;-75
2021/05/28 08:12:51;;;;;;;14.45;10.83;;;;;;;13.46;68.00;100721.54;128193;1101;22347;-75
2021/05/28 08:15:23;;;;;;;10.40;9.45;;;;;;;13.60;67.98;100712.00;128192;1101;22367;-75
2021/05/28 08:17:55;;;;;;;10.93;9.88;;;;;;;13.79;67.93;100715.97;128231;1101;22347;-76
2021/05/28 08:20:25;;;;;;;10.50;9.38;;;;;;;14.00;67.71;100716.12;127988;1102;22370;-75
2021/05/28 08:22:58;;;;;;;10.65;9.65;;;;;;;14.22;66.81;100708.25;128103;1101;22404;-76
2021/05/28 08:25:29;;;;;;;12.83;11.65;;;;;;;14.42;66.18;100698.70;128150;1098;22340;-75
2021/05/28 08:27:58;;;;;;;13.05;12.05;;;;;;;14.66;66.27;100700.30;128223;1098;22370;-75
2021/05/28 08:30:29;;;;;;;10.47;9.57;;;;;;;14.93;65.58;100698.77;128096;1101;22798;-75
2021/05/28 08:32:59;;;;;;;10.05;9.15;;;;;;;15.14;64.35;100695.30;128134;1098;22378;-75
2021/05/28 08:35:29;;;;;;;9.40;8.50;;;;;;;15.32;64.00;100705.50;128194;1098;24473;-76
2021/05/28 08:37:58;;;;;;;8.55;7.85;;;;;;;15.65;63.50;100692.48;128210;1101;22443;-75
2021/05/28 08:40:30;;;;;;;8.35;7.55;;;;;;;15.99;62.88;100691.76;128149;1098;22349;-75
2021/05/28 08:43:05;;;;;;;8.75;7.95;;;;;;;16.32;62.02;100688.44;128199;1098;22361;-74
2021/05/28 08:45:45;;;;;;;7.03;6.43;;;;;;;16.51;60.08;100700.23;127897;1104;22359;-76
2021/05/28 08:48:18;;;;;;;6.67;6.17;;;;;;;16.47;58.66;100698.99;127907;1103;22426;-76
2021/05/28 08:50:50;;;;;;;6.80;6.20;;;;;;;16.32;57.86;100699.11;127927;1101;22506;-75
2021/05/28 08:53:19;;;;;;;;;;;;;;;16.15;58.00;100703.93;127946;1104;22440;-75
2021/05/28 08:55:49;;;;;;;7.85;7.15;;;;;;;16.08;58.88;100704.91;127908;1101;23154;-75
2021/05/28 08:58:21;;;;;;;9.17;7.90;;;;;;;16.11;59.04;100705.34;127876;1104;22352;-75
2021/05/28 09:00:51;;;;;;;8.83;7.98;;;;;;;16.26;59.37;100702.58;127880;1101;24992;-75
2021/05/28 09:03:29;;;;;;;13.18;7.98;;;;;;;16.52;59.43;100696.54;127953;1101;22444;-76
2021/05/28 09:06:22;;;;;;;10.08;7.50;;;;;;;16.71;58.21;100700.32;128152;1098;24997;-75
2021/05/28 09:09:09;;;;;;;7.90;7.20;;;;;;;16.69;57.14;100699.69;128222;1098;22350;-74
2021/05/28 09:11:57;;;;;;;9.33;7.08;;;;;;;16.81;57.67;100699.98;128215;1098;22352;-75
2021/05/28 09:14:38;;;;;;;11.40;8.48;;;;;;;16.97;57.40;100702.30;128188;1098;24243;-75
2021/05/28 09:17:11;;;;;;;8.58;7.60;;;;;;;17.18;56.52;100701.30;128005;1101;22355;-76
2021/05/28 09:19:54;;;;;;;8.78;7.70;;;;;;;17.30;55.92;100701.55;128220;1101;22356;-76
2021/05/28 09:22:35;;;;;;;5.63;5.10;;;;;;;17.74;56.68;100700.13;127944;1101;22343;-76
2021/05/28 09:25:08;;;;;;;6.33;5.35;;;;;;;18.34;55.91;100693.67;127994;1102;22446;-74
2021/05/28 09:27:40;;;;;;;6.35;5.75;;;;;;;18.81;53.78;100690.84;128185;1101;22456;-74
2021/05/28 09:30:30;;;;;;;5.95;5.45;;;;;;;18.96;52.16;100691.39;127985;1101;22336;-75
2021/05/28 09:33:00;;;;;;;5.33;4.83;;;;;;;18.89;50.75;100687.09;127951;1104;22357;-74
2021/05/28 09:35:30;;;;;;;5.80;5.05;;;;;;;18.80;51.28;100692.70;128011;1102;23355;-75
2021/05/28 09:38:00;;;;;;;5.08;4.18;;;;;;;18.69;50.68;100689.83;127910;1101;24494;-74
2021/05/28 09:40:32;;;;;;;4.75;4.35;;;;;;;18.44;50.56;100690.56;127948;1104;23129;-76
2021/05/28 09:43:05;;;;;;;5.33;4.93;;;;;;;18.21;50.98;100691.03;127907;1105;22818;-75
2021/05/28 09:45:40;;;;;;;6.13;5.63;;;;;;;17.91;51.14;100695.21;128000;1104;22366;-75
2021/05/28 09:48:16;;;;;;;6.63;5.60;;;;;;;17.58;51.85;100687.99;127975;1104;22729;-74
2021/05/28 09:50:51;;;;;;;7.90;5.73;;;;;;;17.46;52.89;100686.95;127900;1104;22459;-75
2021/05/28 09:53:40;;;;;;;5.65;5.18;;;;;;;17.47;52.70;100692.11;127960;1101;22368;-75
2021/05/28 09:56:31;;;;;;;5.85;5.35;;;;;;;17.42;52.59;100683.88;127934;1104;22388;-74
2021/05/28 09:59:07;;;;;;;4.73;4.20;;;;;;;17.31;52.49;100692.50;127917;1101;22385;-75
2021/05/28 10:01:54;;;;;;;17.05;15.25;;;;;;;17.15;52.56;100685.69;127981;1105;22471;-75
2021/05/28 10:04:25;;;;;;;5.53;4.70;;;;;;;17.13;52.94;100685.09;127965;1101;22383;-75
2021/05/28 10:06:58;;;;;;;4.73;4.03;;;;;;;17.20;52.86;100695.78;127658;1104;22382;-76
2021/05/28 10:09:29;;;;;;;5.23;3.78;;;;;;;17.30;52.59;100693.54;127468;1105;22811;-77
2021/05/28 10:11:59;;;;;;;3.78;3.40;;;;;;;17.40;52.29;100689.44;128160;1098;24463;-78
2021/05/28 10:14:30;;;;;;;6.85;3.68;;;;;;;17.57;52.35;100689.03;127997;1098;24231;-74
2021/05/28 10:17:00;;;;;;;4.80;3.30;;;;;;;17.74;51.51;100690.25;128156;1098;22455;-74
2021/05/28 10:19:33;;;;;;;5.60;3.15;;;;;;;17.78;51.19;100688.02;128157;1098;25487;-74
2021/05/28 10:22:04;;;;;;;3.80;3.50;;;;;;;17.79;50.83;100681.64;128131;1101;22458;-74
2021/05/28 10:24:34;;;;;;;4.60;4.20;;;;;;;17.75;51.03;100688.41;128178;1101;22373;-72
2021/05/28 10:27:05;;;;;;;4.63;4.17;;;;;;;17.72;51.09;100694.16;128143;1098;24186;-75
2021/05/28 10:29:35;;;;;;;;;;;;;;;17.67;51.36;100691.30;127961;1102;22353;-74
2021/05/28 10:32:14;;;;;;;4.35;3.60;;;;;;;17.69;51.50;100691.89;128111;1101;22484;-74
2021/05/28 10:35:04;;;;;;;5.20;3.25;;;;;;;17.66;51.21;100687.80;128169;1101;22348;-74
2021/05/28 10:37:36;;;;;;;2.90;2.70;;;;;;;17.61;50.95;100699.09;128160;1101;22355;-75
2021/05/28 10:40:26;;;;;;;4.97;2.97;;;;;;;17.63;50.64;100693.56;128165;1101;22359;-74
2021/05/28 10:43:06;;;;;;;4.78;2.90;;;;;;;17.66;50.65;100695.82;127930;1101;22375;-74
2021/05/28 10:45:54;;;;;;;3.70;3.20;;;;;;;17.73;49.94;100698.49;127908;1104;22457;-74
2021/05/28 10:48:39;;;;;;;2.50;1.70;;;;;;;17.64;49.87;100700.53;127888;1101;22526;-74
2021/05/28 10:51:12;;;;;;;5.03;2.00;;;;;;;17.28;50.29;100701.73;127857;1105;22877;-74
2021/05/28 10:54:17;;;;;;;2.47;1.73;;;;;;;16.98;51.42;100705.78;127891;1104;22421;-75
2021/05/28 10:56:47;;;;;;;2.43;2.18;;;;;;;16.70;52.88;100701.36;127450;1108;22399;-74
2021/05/28 10:59:19;;;;;;;2.50;2.20;;;;;;;16.55;54.14;100698.81;127390;1106;22387;-74
2021/05/28 11:01:57;;;;;;;2.75;2.55;;;;;;;16.43;54.48;100698.57;127722;1101;22380;-74
2021/05/28 11:04:27;;;;;;;4.23;3.50;;;;;;;16.29;55.12;100691.50;127883;1104;23969;-74
2021/05/28 11:06:59;;;;;;;6.10;4.98;;;;;;;16.17;55.76;100682.43;127905;1104;22484;-74
2021/05/28 11:09:50;;;;;;;6.90;5.08;;;;;;;16.15;56.63;100687.12;127933;1101;24521;-73
2021/05/28 11:12:25;;;;;;;6.50;4.30;;;;;;;16.17;57.01;100683.25;127923;1101;24504;-74
2021/05/28 11:15:12;;;;;;;5.25;3.98;;;;;;;16.27;57.48;100687.41;127884;1101;24498;-73
2021/05/28 11:18:03;;;;;;;4.88;4.38;;;;;;;16.37;57.68;100680.69;127977;1101;24504;-73
2021/05/28 11:20:44;;;;;;;4.35;3.95;;;;;;;16.45;57.56;100691.17;127855;1104;22996;-74
2021/05/28 11:23:17;;;;;;;4.05;1.90;;;;;;;16.36;56.60;100695.05;127851;1104;22466;-74
2021/05/28 11:25:53;;;;;;;1.70;1.50;;;;;;;16.18;56.69;100690.22;127962;1104;22386;-74
2021/05/28 11:28:23;;;;;;;2.45;1.40;;;;;;;16.13;56.32;100700.66;127638;1101;24589;-74
2021/05/28 11:31:02;;;;;;;4.95;1.75;;;;;;;16.10;56.44;100692.23;127890;1101;24504;-76
2021/05/28 11:33:42;;;;;;;4.10;1.78;;;;;;;16.01;55.87;100696.88;128050;1098;24508;-74
2021/05/28 11:36:27;;;;;;;3.43;1.60;;;;;;;15.88;55.83;100692.27;128181;1101;23221;-75
2021/05/28 11:39:22;;;;;;;2.88;1.60;;;;;;;15.81;56.02;100694.08;128224;1101;22357;-74
2021/05/28 11:42:04;;;;;;;5.07;1.00;;;;;;;15.80;56.12;100689.77;127901;1102;22375;-74
2021/05/28 11:44:34;;;;;;;2.95;1.30;;;;;;;15.82;56.23;100690.38;127952;1103;22361;-74